createdAt,value
2022-09-24T00:04:56.603Z,26.57
2022-09-24T00:10:18.341Z,32.80
2022-09-24T00:15:43.631Z,36.03
2022-09-24T00:21:14.589Z,33.00
2022-09-24T00:26:51.489Z,32.40
2022-09-24T00:32:13.076Z,32.63
2022-09-24T00:37:35.300Z,28.67
2022-09-24T00:42:57.136Z,32.17
2022-09-24T00:48:19.127Z,39.87
2022-09-24T00:53:42.126Z,33.27
2022-09-24T00:59:05.784Z,33.07
2022-09-24T01:04:27.960Z,32.70
2022-09-24T01:09:50.316Z,39.23
2022-09-24T01:15:18.029Z,30.80
2022-09-24T01:21:07.095Z,34.77
2022-09-24T01:26:58.653Z,35.13
2022-09-24T01:32:28.912Z,35.53
2022-09-24T01:37:56.419Z,35.27
2022-09-24T01:43:21.963Z,31.10
2022-09-24T01:48:44.515Z,31.40
2022-09-24T01:54:11.188Z,35.20
2022-09-24T01:59:36.501Z,34.67
2022-09-24T02:05:03.558Z,32.57
2022-09-24T02:10:28.833Z,37.40
2022-09-24T02:15:52.272Z,36.67
2022-09-24T02:21:16.213Z,37.43
2022-09-24T02:26:38.087Z,32.77
2022-09-24T02:32:00.167Z,33.07
2022-09-24T02:37:23.770Z,44.00
2022-09-24T02:42:45.435Z,48.23
2022-09-24T02:48:07.235Z,48.63
2022-09-24T02:53:29.619Z,45.30
2022-09-24T02:58:51.282Z,46.27
2022-09-24T03:04:13.447Z,43.50
2022-09-24T03:09:38.264Z,24.47
2022-09-24T03:14:59.909Z,21.53
2022-09-24T03:20:22.104Z,24.03
2022-09-24T03:25:44.381Z,25.37
2022-09-24T03:31:07.228Z,15.53
2022-09-24T03:36:28.960Z,12.33
2022-09-24T03:41:51.308Z,7.57
2022-09-24T03:47:12.928Z,4.03
2022-09-24T03:52:34.530Z,5.63
2022-09-24T03:57:56.813Z,10.30
2022-09-24T04:03:18.560Z,3.30
2022-09-24T04:08:40.262Z,5.10
2022-09-24T04:14:02.594Z,6.03
2022-09-24T04:19:26.090Z,4.40
2022-09-24T04:24:47.743Z,12.77
2022-09-24T04:30:12.254Z,5.57
2022-09-24T04:35:35.579Z,11.10
2022-09-24T04:41:04.478Z,6.20
2022-09-24T04:46:26.793Z,5.73
2022-09-24T04:51:48.470Z,7.13
2022-09-24T04:57:10.231Z,4.63
2022-09-24T05:02:32.771Z,11.37
2022-09-24T05:07:56.019Z,5.40
2022-09-24T05:13:17.638Z,6.50
2022-09-24T05:18:40.419Z,4.70
2022-09-24T05:24:02.457Z,10.43
2022-09-24T05:29:24.380Z,8.73
2022-09-24T05:34:47.272Z,10.30
2022-09-24T05:40:33.049Z,10.57
2022-09-24T05:45:56.381Z,12.17
2022-09-24T05:51:18.659Z,6.70
2022-09-24T05:56:40.248Z,7.93
2022-09-24T06:02:01.955Z,8.07
2022-09-24T06:07:24.252Z,10.70
2022-09-24T06:12:46.243Z,7.40
2022-09-24T06:18:08.134Z,8.20
2022-09-24T06:23:30.678Z,9.03
2022-09-24T06:28:52.313Z,3.50
2022-09-24T06:34:14.863Z,4.20
2022-09-24T06:39:37.334Z,3.83
2022-09-24T06:44:59.180Z,6.37
2022-09-24T06:50:22.140Z,6.50
2022-09-24T06:55:46.876Z,5.13
2022-09-24T07:01:09.026Z,6.33
2022-09-24T07:06:51.173Z,6.83
2022-09-24T07:12:13.816Z,9.03
2022-09-24T07:17:35.897Z,11.90
2022-09-24T07:22:57.750Z,3.67
2022-09-24T07:28:20.912Z,5.53
2022-09-24T07:33:42.987Z,6.90
2022-09-24T07:39:04.822Z,2.93
2022-09-24T07:44:28.383Z,12.23
2022-09-24T07:49:50.233Z,3.50
2022-09-24T07:55:12.068Z,4.00
2022-09-24T08:00:34.865Z,4.73
2022-09-24T08:05:59.082Z,6.20
2022-09-24T08:11:21.066Z,2.30
2022-09-24T08:16:43.572Z,8.10
2022-09-24T08:22:07.456Z,7.70
2022-09-24T08:27:30.566Z,5.70
2022-09-24T08:32:53.109Z,4.83
2022-09-24T08:38:15.289Z,5.57
2022-09-24T08:43:44.064Z,5.97
2022-09-24T08:49:10.194Z,8.00
2022-09-24T08:54:34.252Z,5.23
2022-09-24T08:59:56.109Z,3.57
2022-09-24T09:05:26.913Z,6.00
2022-09-24T09:10:49.072Z,5.07
2022-09-24T09:16:19.227Z,5.20
2022-09-24T09:21:43.830Z,3.03
2022-09-24T09:27:10.904Z,3.17
2022-09-24T09:32:40.173Z,1.67
2022-09-24T09:38:08.844Z,6.40
2022-09-24T09:43:30.757Z,5.23
2022-09-24T09:48:56.597Z,4.47
2022-09-24T09:54:19.168Z,3.43
2022-09-24T09:59:41.144Z,3.00
2022-09-24T10:05:05.301Z,3.90
2022-09-24T10:10:29.018Z,2.60
2022-09-24T10:15:52.443Z,1.63
2022-09-24T10:21:30.995Z,2.97
2022-09-24T10:26:54.977Z,3.97
2022-09-24T10:32:18.250Z,5.43
2022-09-24T10:37:50.347Z,2.73
2022-09-24T10:43:18.705Z,8.80
2022-09-24T10:48:44.298Z,2.37
2022-09-24T10:54:17.845Z,4.10
2022-09-24T10:59:53.026Z,4.43
2022-09-24T11:05:18.691Z,5.67
2022-09-24T11:10:52.587Z,2.47
2022-09-24T11:16:49.929Z,5.23
2022-09-24T11:22:14.307Z,13.20
2022-09-24T11:27:51.616Z,6.57
2022-09-24T11:33:25.558Z,4.00
2022-09-24T11:39:03.448Z,2.07
2022-09-24T11:45:04.353Z,5.53
2022-09-24T11:50:33.547Z,3.77
2022-09-24T11:55:57.874Z,3.67
2022-09-24T12:01:22.272Z,2.70
2022-09-24T12:06:51.762Z,2.70
2022-09-24T12:12:17.740Z,1.77
2022-09-24T12:17:42.344Z,4.77
2022-09-24T12:23:10.973Z,4.15
2022-09-24T12:28:57.074Z,1.43
2022-09-24T12:34:23.384Z,4.53
2022-09-24T12:39:50.098Z,2.40
2022-09-24T12:45:15.594Z,4.05
2022-09-24T12:50:38.296Z,4.93
2022-09-24T12:56:01.664Z,2.17
2022-09-24T13:01:31.742Z,1.33
2022-09-24T13:06:53.632Z,1.97
2022-09-24T13:12:21.142Z,2.03
2022-09-24T13:17:44.154Z,3.37
2022-09-24T13:23:28.767Z,3.85
2022-09-24T13:28:55.852Z,2.00
2022-09-24T13:34:20.027Z,5.97
2022-09-24T13:39:44.047Z,4.47
2022-09-24T13:45:11.314Z,6.13
2022-09-24T13:50:38.925Z,9.73
2022-09-24T13:56:03.770Z,2.28
2022-09-24T14:01:29.243Z,2.22
2022-09-24T14:06:52.734Z,4.50
2022-09-24T14:12:16.141Z,2.78
2022-09-24T14:17:38.633Z,3.33
2022-09-24T14:23:01.198Z,1.58
2022-09-24T14:28:23.408Z,2.55
2022-09-24T14:33:46.365Z,3.88
2022-09-24T14:39:10.770Z,2.08
2022-09-24T14:44:32.924Z,4.85
2022-09-24T14:49:55.976Z,6.40
2022-09-24T14:55:19.658Z,2.50
2022-09-24T15:00:47.173Z,2.67
2022-09-24T15:06:20.143Z,2.10
2022-09-24T15:11:43.798Z,2.65
2022-09-24T15:17:10.242Z,6.82
2022-09-24T15:22:32.781Z,3.30
2022-09-24T15:27:54.664Z,4.30
2022-09-24T15:33:17.655Z,3.35
2022-09-24T15:38:40.203Z,4.38
2022-09-24T15:44:02.117Z,10.43
2022-09-24T15:49:24.208Z,2.20
2022-09-24T15:54:46.714Z,2.38
2022-09-24T16:00:16.112Z,1.05
2022-09-24T16:05:38.893Z,1.35
2022-09-24T16:11:04.799Z,7.63
2022-09-24T16:16:30.112Z,3.63
2022-09-24T16:21:52.051Z,1.08
2022-09-24T16:27:14.850Z,0.88
2022-09-24T16:32:36.693Z,1.45
2022-09-24T16:37:58.492Z,1.88
2022-09-24T16:43:21.004Z,2.83
2022-09-24T16:48:43.711Z,6.45
2022-09-24T16:54:05.734Z,0.87
2022-09-24T16:59:28.260Z,6.87
2022-09-24T17:04:52.843Z,4.20
2022-09-24T17:10:15.320Z,4.57
2022-09-24T17:15:37.840Z,3.53
2022-09-24T17:21:00.593Z,3.90
2022-09-24T17:26:22.911Z,4.53
2022-09-24T17:31:45.737Z,2.40
2022-09-24T17:37:07.651Z,2.27
2022-09-24T17:42:30.988Z,3.57
2022-09-24T17:47:56.107Z,3.97
2022-09-24T17:53:20.502Z,1.73
2022-09-24T17:58:43.800Z,5.47
2022-09-24T18:04:09.079Z,6.27
2022-09-24T18:09:30.890Z,7.27
2022-09-24T18:14:52.758Z,3.20
2022-09-24T18:20:15.388Z,2.53
2022-09-24T18:25:37.301Z,1.97
2022-09-24T18:31:02.666Z,2.03
2022-09-24T18:36:25.443Z,2.53
2022-09-24T18:41:47.134Z,3.70
2022-09-24T18:47:13.824Z,2.37
2022-09-24T18:52:36.123Z,2.80
2022-09-24T18:57:57.756Z,1.90
2022-09-24T19:03:19.900Z,6.07
2022-09-24T19:08:42.203Z,2.70
2022-09-24T19:14:03.893Z,2.97
2022-09-24T19:19:26.897Z,1.77
2022-09-24T19:24:49.299Z,2.73
2022-09-24T19:30:11.747Z,1.90
2022-09-24T19:35:34.414Z,1.77
2022-09-24T19:40:58.385Z,1.50
2022-09-24T19:46:23.429Z,3.50
2022-09-24T19:51:45.061Z,9.47
2022-09-24T19:57:07.393Z,3.83
2022-09-24T20:02:29.614Z,3.13
2022-09-24T20:07:51.324Z,3.77
2022-09-24T20:13:13.571Z,2.03
2022-09-24T20:18:35.499Z,5.07
2022-09-24T20:23:57.893Z,3.10
2022-09-24T20:29:22.041Z,3.57
2022-09-24T20:34:43.718Z,2.40
2022-09-24T20:40:06.390Z,4.30
2022-09-24T20:45:28.864Z,2.30
2022-09-24T20:50:50.517Z,2.83
2022-09-24T20:56:12.950Z,7.60
2022-09-24T21:01:35.505Z,7.13
2022-09-24T21:06:57.260Z,6.03
2022-09-24T21:12:19.028Z,3.40
2022-09-24T21:17:54.770Z,3.77
2022-09-24T21:23:25.806Z,6.90
2022-09-24T21:28:49.315Z,8.83
2022-09-24T21:34:12.564Z,4.97
2022-09-24T21:39:35.158Z,3.53
2022-09-24T21:44:57.083Z,6.03
2022-09-24T21:50:19.467Z,3.20
2022-09-24T21:55:41.454Z,4.83
2022-09-24T22:01:06.905Z,4.63
2022-09-24T22:06:30.663Z,2.47
2022-09-24T22:11:52.609Z,5.67
2022-09-24T22:17:14.415Z,2.90
2022-09-24T22:22:36.752Z,1.80
2022-09-24T22:27:58.356Z,2.07
2022-09-24T22:33:38.299Z,4.33
2022-09-24T22:39:00.978Z,1.40
2022-09-24T22:44:22.641Z,2.23
2022-09-24T22:49:44.211Z,3.27
2022-09-24T22:55:07.568Z,2.03
2022-09-24T23:00:29.170Z,2.87
2022-09-24T23:05:50.766Z,2.10
2022-09-24T23:11:15.168Z,4.60
2022-09-24T23:16:37.306Z,2.63
2022-09-24T23:21:58.922Z,1.73
2022-09-24T23:27:21.640Z,1.67
2022-09-24T23:32:43.254Z,6.27
2022-09-24T23:38:05.354Z,4.00
2022-09-24T23:43:27.855Z,2.87
2022-09-24T23:48:49.530Z,3.03
2022-09-24T23:54:11.240Z,1.43
2022-09-24T23:59:33.850Z,2.27
